Decoded Metar for PAKV (KALTAG in AK, USA) (IATA:KAL) | Meteo·Mobile Aviation Weather
aviador You're here:

PAKV Decoded Metar

KALTAG in AK, USA
Report Time2018-11-12 21:53:00
UTC Time2018-11-12 22:02:10
Flight Rules vfr VFR
Wind040° at 15 Gusting to 23 kt
W.Decomp.*RWY 03: 14.9 kt HW 2.1 kt LCW
W.Rank040° ranks 1
Current wind is above 040° avg. (8.5)
Visibility9999 m
Phenomena:Light Snow
Clouds:Broken 039 Hf
Overcast 110 Hf
Expected CloudBase > 2,000 ft AGL from Temp-Dew spread
Ceiling3,900 ft
Temp-6°C (ISA -21)
Dew Point-11°C (68% RH)
AAT-14.5°C
QNH1012 hPa
Density Alt-2,280 ft
Elevation200 ft
Report Wrong Elevation
Raw Report
PAKV 122153Z AUTO 04015G23KT 9SM -SN BKN039 OVC110 M06/M11 A2987
RMK AO2 PK WND 06027/2117 SLP120 P0000 T10561106 TSNO $=

Extra information for PAKV:More info

Metar Taf Metar & Taf Last 4 Metars F.Rules Stats Wind Profile Meteogram Temp Stats Airport Information Weather charts Add Link Nearby VenuesMetar ALERT Operation Metar Decoded Social comments

AIRNAV info for PAKV